HEMM

Mersa Matruh Airport

Mersa Matruh, Egypt
TAF HEMM 251700Z 2518/2624 31015G25KT 9999 SCT020
Issued Valid From Valid To
Apr-25 @ 17:00 UTC
(an hour ago)
Apr-25 @ 18:00 UTC
(17 minutes ago)
Apr-27 @ 00:00 UTC
(-1 days ago)
Apr-25 @ 18:00 to Apr-27 @ 00:00
TAF HEMM 251700Z 2518/2624 31015G25KT 9999 SCT020
Wind Visibility Clouds
310° at 15 knots
 Gusting to 25 knots
10,000+ meters
  • Scattered at 2,000' AGL
TAF HEMM 251700Z 2518/2624 31015G25KT 9999 SCT020
Issued Apr-25 @ 17:00 UTC
(an hour ago)
Valid From Apr-25 @ 18:00 UTC
(17 minutes ago)
Valid To Apr-27 @ 00:00 UTC
(-1 days ago)
Apr-25 @ 18:00 - Apr-27 @ 00:00
Wind Visibility
310° at 15 knots
 Gusting to 25 knots
10,000+ meters
Clouds
  • Scattered at 2,000' AGL